Forside
METAR-TAF:

METAR-TAF

Lufthavne :

Smith Field

Siloam Springs, Arkansas, USA

Breddekreds: 36-12N, længdekreds: 094-29W, højde: 300 m

Aktuelle vejr

Denne rapport blev lavet for 26 minutter siden, kl. 12:56 UTC
Vind 15 kt fra syd med vindstød på up til 21 kt
Temperatur 8°C
Fugtighed 81%
Tryk 1011 hPa
Sigt: 16.1 km
Overskyet i en højde af 2500 ft

METAR: KSLG 221256Z AUTO 17015G21KT 10SM OVC025 08/05 A2986 RMK AO2 SLP114 T00830050

Tid: 07:22 (13:22 UTC)


TAF: fraværende

Vejrobservationer og prognoser fra mere end 4000 lufthavne (METAR og TAF).

De gule og røde prikker repræsenterer de meteorologiske stationer.

Flyt musen over at se navnet på stationen.

Så klik over at se vejr observationer og prognoser.

At skifte det kort: Klik på de grønne knapper med et sort kors for at zoome ind; på den grønne knap med en bindestreg for at zoome ud; eller på de grønne pile for tilstødende kort.


METAR-TAF: